sensor_id;sensor_type;location;lat;lon;timestamp;P1;durP1;ratioP1;P2;durP2;ratioP2
55993;SDS011;67425;52.126;20.638;2024-01-30T00:01:16;32.95;;;11.48;;
55993;SDS011;67425;52.126;20.638;2024-01-30T00:03:41;29.20;;;10.88;;
55993;SDS011;67425;52.126;20.638;2024-01-30T00:06:10;34.40;;;10.80;;
55993;SDS011;67425;52.126;20.638;2024-01-30T00:08:36;26.25;;;10.38;;
55993;SDS011;67425;52.126;20.638;2024-01-30T00:11:01;27.35;;;9.13;;
55993;SDS011;67425;52.126;20.638;2024-01-30T00:13:27;19.23;;;10.07;;
55993;SDS011;67425;52.126;20.638;2024-01-30T00:15:52;26.10;;;9.45;;
55993;SDS011;67425;52.126;20.638;2024-01-30T00:18:18;16.40;;;8.75;;
55993;SDS011;67425;52.126;20.638;2024-01-30T00:20:44;23.17;;;8.85;;
55993;SDS011;67425;52.126;20.638;2024-01-30T00:23:09;29.35;;;9.82;;
55993;SDS011;67425;52.126;20.638;2024-01-30T00:25:35;19.63;;;9.40;;
55993;SDS011;67425;52.126;20.638;2024-01-30T00:28:00;19.65;;;9.60;;
55993;SDS011;67425;52.126;20.638;2024-01-30T00:30:26;22.15;;;8.52;;
55993;SDS011;67425;52.126;20.638;2024-01-30T00:32:51;26.67;;;10.05;;
55993;SDS011;67425;52.126;20.638;2024-01-30T00:35:16;19.10;;;8.98;;
55993;SDS011;67425;52.126;20.638;2024-01-30T00:37:42;25.75;;;9.70;;
55993;SDS011;67425;52.126;20.638;2024-01-30T00:40:07;32.28;;;10.07;;
55993;SDS011;67425;52.126;20.638;2024-01-30T00:42:35;24.58;;;9.93;;
55993;SDS011;67425;52.126;20.638;2024-01-30T00:45:00;24.13;;;9.13;;
55993;SDS011;67425;52.126;20.638;2024-01-30T00:47:26;19.45;;;8.38;;
55993;SDS011;67425;52.126;20.638;2024-01-30T00:49:51;19.05;;;8.95;;
55993;SDS011;67425;52.126;20.638;2024-01-30T00:52:16;28.77;;;10.20;;
55993;SDS011;67425;52.126;20.638;2024-01-30T00:54:42;17.80;;;8.82;;
55993;SDS011;67425;52.126;20.638;2024-01-30T00:57:08;32.22;;;11.43;;
55993;SDS011;67425;52.126;20.638;2024-01-30T00:59:33;26.80;;;10.88;;
55993;SDS011;67425;52.126;20.638;2024-01-30T01:01:59;33.80;;;11.48;;
55993;SDS011;67425;52.126;20.638;2024-01-30T01:04:24;31.08;;;10.27;;
55993;SDS011;67425;52.126;20.638;2024-01-30T01:06:51;27.42;;;9.20;;
55993;SDS011;67425;52.126;20.638;2024-01-30T01:09:17;22.50;;;9.02;;
55993;SDS011;67425;52.126;20.638;2024-01-30T01:11:42;20.58;;;8.23;;
55993;SDS011;67425;52.126;20.638;2024-01-30T01:14:07;21.92;;;10.13;;
55993;SDS011;67425;52.126;20.638;2024-01-30T01:16:33;27.55;;;10.32;;
55993;SDS011;67425;52.126;20.638;2024-01-30T01:18:58;24.13;;;10.63;;
55993;SDS011;67425;52.126;20.638;2024-01-30T01:21:25;21.25;;;9.88;;
55993;SDS011;67425;52.126;20.638;2024-01-30T01:23:50;30.65;;;11.00;;
55993;SDS011;67425;52.126;20.638;2024-01-30T01:26:16;28.10;;;10.90;;
55993;SDS011;67425;52.126;20.638;2024-01-30T01:28:41;30.88;;;10.60;;
55993;SDS011;67425;52.126;20.638;2024-01-30T01:31:06;21.33;;;10.85;;
55993;SDS011;67425;52.126;20.638;2024-01-30T01:33:32;27.58;;;11.73;;
55993;SDS011;67425;52.126;20.638;2024-01-30T01:35:58;38.10;;;11.20;;
55993;SDS011;67425;52.126;20.638;2024-01-30T01:38:24;23.15;;;10.73;;
55993;SDS011;67425;52.126;20.638;2024-01-30T01:40:49;25.13;;;10.85;;
55993;SDS011;67425;52.126;20.638;2024-01-30T01:43:16;28.38;;;10.95;;
55993;SDS011;67425;52.126;20.638;2024-01-30T01:45:41;26.55;;;10.90;;
55993;SDS011;67425;52.126;20.638;2024-01-30T01:48:07;26.83;;;10.63;;
55993;SDS011;67425;52.126;20.638;2024-01-30T01:50:33;25.95;;;10.85;;
55993;SDS011;67425;52.126;20.638;2024-01-30T01:52:59;26.60;;;10.68;;
55993;SDS011;67425;52.126;20.638;2024-01-30T01:55:24;25.55;;;12.15;;
55993;SDS011;67425;52.126;20.638;2024-01-30T01:57:52;28.45;;;11.68;;
55993;SDS011;67425;52.126;20.638;2024-01-30T02:00:18;24.20;;;10.43;;
55993;SDS011;67425;52.126;20.638;2024-01-30T02:02:44;26.00;;;10.75;;
55993;SDS011;67425;52.126;20.638;2024-01-30T02:05:10;26.88;;;11.18;;
55993;SDS011;67425;52.126;20.638;2024-01-30T02:07:36;28.25;;;10.13;;
55993;SDS011;67425;52.126;20.638;2024-01-30T02:10:02;26.23;;;10.32;;
55993;SDS011;67425;52.126;20.638;2024-01-30T02:12:28;22.83;;;10.35;;
55993;SDS011;67425;52.126;20.638;2024-01-30T02:14:54;36.22;;;10.93;;
55993;SDS011;67425;52.126;20.638;2024-01-30T02:17:20;36.80;;;11.32;;
55993;SDS011;67425;52.126;20.638;2024-01-30T02:19:46;34.42;;;12.02;;
55993;SDS011;67425;52.126;20.638;2024-01-30T02:22:11;26.63;;;11.82;;
55993;SDS011;67425;52.126;20.638;2024-01-30T02:24:37;35.72;;;12.02;;
55993;SDS011;67425;52.126;20.638;2024-01-30T02:27:03;27.05;;;10.35;;
55993;SDS011;67425;52.126;20.638;2024-01-30T02:29:28;24.80;;;10.75;;
55993;SDS011;67425;52.126;20.638;2024-01-30T02:31:54;29.50;;;11.98;;
55993;SDS011;67425;52.126;20.638;2024-01-30T02:34:19;28.80;;;11.98;;
55993;SDS011;67425;52.126;20.638;2024-01-30T02:36:45;26.92;;;11.20;;
55993;SDS011;67425;52.126;20.638;2024-01-30T02:39:11;34.65;;;12.25;;
55993;SDS011;67425;52.126;20.638;2024-01-30T02:41:36;29.60;;;11.75;;
55993;SDS011;67425;52.126;20.638;2024-01-30T02:44:02;30.23;;;13.07;;
55993;SDS011;67425;52.126;20.638;2024-01-30T02:46:28;34.40;;;11.93;;
55993;SDS011;67425;52.126;20.638;2024-01-30T02:48:53;31.67;;;11.85;;
55993;SDS011;67425;52.126;20.638;2024-01-30T02:51:18;28.80;;;11.60;;
55993;SDS011;67425;52.126;20.638;2024-01-30T02:53:44;31.05;;;12.13;;
55993;SDS011;67425;52.126;20.638;2024-01-30T02:56:09;34.78;;;10.50;;
55993;SDS011;67425;52.126;20.638;2024-01-30T02:58:37;36.28;;;11.15;;
55993;SDS011;67425;52.126;20.638;2024-01-30T03:01:04;26.15;;;10.02;;
55993;SDS011;67425;52.126;20.638;2024-01-30T03:03:29;31.83;;;11.13;;
55993;SDS011;67425;52.126;20.638;2024-01-30T03:05:54;24.70;;;11.38;;
55993;SDS011;67425;52.126;20.638;2024-01-30T03:08:20;30.38;;;12.57;;
55993;SDS011;67425;52.126;20.638;2024-01-30T03:10:46;22.33;;;9.98;;
55993;SDS011;67425;52.126;20.638;2024-01-30T03:13:11;30.23;;;11.80;;
55993;SDS011;67425;52.126;20.638;2024-01-30T03:15:36;29.50;;;11.15;;
55993;SDS011;67425;52.126;20.638;2024-01-30T03:18:02;26.38;;;11.43;;
55993;SDS011;67425;52.126;20.638;2024-01-30T03:20:31;26.25;;;11.07;;
55993;SDS011;67425;52.126;20.638;2024-01-30T03:22:56;33.20;;;12.57;;
55993;SDS011;67425;52.126;20.638;2024-01-30T03:25:22;24.02;;;10.98;;
55993;SDS011;67425;52.126;20.638;2024-01-30T03:27:48;27.38;;;11.60;;
55993;SDS011;67425;52.126;20.638;2024-01-30T03:30:13;28.25;;;10.05;;
55993;SDS011;67425;52.126;20.638;2024-01-30T03:32:39;27.30;;;11.23;;
55993;SDS011;67425;52.126;20.638;2024-01-30T03:35:04;24.45;;;10.50;;
55993;SDS011;67425;52.126;20.638;2024-01-30T03:37:30;28.85;;;10.63;;
55993;SDS011;67425;52.126;20.638;2024-01-30T03:39:55;29.33;;;10.57;;
55993;SDS011;67425;52.126;20.638;2024-01-30T03:42:21;25.23;;;10.68;;
55993;SDS011;67425;52.126;20.638;2024-01-30T03:44:47;28.90;;;11.30;;
55993;SDS011;67425;52.126;20.638;2024-01-30T03:47:12;22.02;;;10.73;;
55993;SDS011;67425;52.126;20.638;2024-01-30T03:49:38;26.35;;;10.57;;
55993;SDS011;67425;52.126;20.638;2024-01-30T03:52:03;28.20;;;10.07;;
55993;SDS011;67425;52.126;20.638;2024-01-30T03:54:29;22.58;;;10.35;;
55993;SDS011;67425;52.126;20.638;2024-01-30T03:56:54;27.98;;;11.55;;
55993;SDS011;67425;52.126;20.638;2024-01-30T03:59:19;25.92;;;10.60;;
55993;SDS011;67425;52.126;20.638;2024-01-30T04:01:49;30.02;;;10.45;;
55993;SDS011;67425;52.126;20.638;2024-01-30T04:04:17;30.08;;;11.68;;
55993;SDS011;67425;52.126;20.638;2024-01-30T04:06:43;31.90;;;11.35;;
55993;SDS011;67425;52.126;20.638;2024-01-30T04:09:09;29.65;;;10.48;;
55993;SDS011;67425;52.126;20.638;2024-01-30T04:11:35;23.40;;;10.32;;
55993;SDS011;67425;52.126;20.638;2024-01-30T04:14:00;29.75;;;11.05;;
55993;SDS011;67425;52.126;20.638;2024-01-30T04:16:26;27.55;;;10.32;;
55993;SDS011;67425;52.126;20.638;2024-01-30T04:18:51;27.92;;;10.13;;
55993;SDS011;67425;52.126;20.638;2024-01-30T04:21:17;28.73;;;12.38;;
55993;SDS011;67425;52.126;20.638;2024-01-30T04:23:42;31.17;;;11.82;;
55993;SDS011;67425;52.126;20.638;2024-01-30T04:26:08;39.75;;;11.30;;
55993;SDS011;67425;52.126;20.638;2024-01-30T04:28:33;27.23;;;10.68;;
55993;SDS011;67425;52.126;20.638;2024-01-30T04:30:59;32.03;;;10.95;;
55993;SDS011;67425;52.126;20.638;2024-01-30T04:33:24;27.95;;;9.75;;
55993;SDS011;67425;52.126;20.638;2024-01-30T04:35:49;27.90;;;10.70;;
55993;SDS011;67425;52.126;20.638;2024-01-30T04:38:15;25.13;;;10.18;;
55993;SDS011;67425;52.126;20.638;2024-01-30T04:40:40;22.15;;;10.32;;
55993;SDS011;67425;52.126;20.638;2024-01-30T04:43:05;27.55;;;9.75;;
55993;SDS011;67425;52.126;20.638;2024-01-30T04:45:31;23.55;;;10.95;;
55993;SDS011;67425;52.126;20.638;2024-01-30T04:47:57;24.73;;;9.77;;
55993;SDS011;67425;52.126;20.638;2024-01-30T04:50:22;25.80;;;10.43;;
55993;SDS011;67425;52.126;20.638;2024-01-30T04:52:48;30.70;;;11.75;;
55993;SDS011;67425;52.126;20.638;2024-01-30T04:55:13;30.33;;;11.70;;
55993;SDS011;67425;52.126;20.638;2024-01-30T04:57:39;30.20;;;11.75;;
55993;SDS011;67425;52.126;20.638;2024-01-30T05:00:05;30.92;;;10.13;;
55993;SDS011;67425;52.126;20.638;2024-01-30T05:02:31;25.45;;;10.27;;
55993;SDS011;67425;52.126;20.638;2024-01-30T05:04:56;24.98;;;10.35;;
55993;SDS011;67425;52.126;20.638;2024-01-30T05:07:22;20.20;;;9.98;;
55993;SDS011;67425;52.126;20.638;2024-01-30T05:09:50;33.08;;;10.73;;
55993;SDS011;67425;52.126;20.638;2024-01-30T05:12:15;30.08;;;10.32;;
55993;SDS011;67425;52.126;20.638;2024-01-30T05:14:40;30.35;;;10.85;;
55993;SDS011;67425;52.126;20.638;2024-01-30T05:17:06;25.58;;;9.88;;
55993;SDS011;67425;52.126;20.638;2024-01-30T05:19:32;23.10;;;10.43;;
55993;SDS011;67425;52.126;20.638;2024-01-30T05:21:58;36.58;;;11.35;;
55993;SDS011;67425;52.126;20.638;2024-01-30T05:24:23;20.08;;;9.27;;
55993;SDS011;67425;52.126;20.638;2024-01-30T05:26:48;24.88;;;9.32;;
55993;SDS011;67425;52.126;20.638;2024-01-30T05:29:16;26.52;;;10.30;;
55993;SDS011;67425;52.126;20.638;2024-01-30T05:31:41;21.25;;;8.93;;
55993;SDS011;67425;52.126;20.638;2024-01-30T05:34:07;27.30;;;10.60;;
55993;SDS011;67425;52.126;20.638;2024-01-30T05:36:33;32.63;;;10.73;;
55993;SDS011;67425;52.126;20.638;2024-01-30T05:38:58;31.20;;;9.63;;
55993;SDS011;67425;52.126;20.638;2024-01-30T05:41:24;25.70;;;10.80;;
55993;SDS011;67425;52.126;20.638;2024-01-30T05:43:49;19.42;;;9.30;;
55993;SDS011;67425;52.126;20.638;2024-01-30T05:46:14;25.15;;;9.82;;
55993;SDS011;67425;52.126;20.638;2024-01-30T05:48:40;28.05;;;10.80;;
55993;SDS011;67425;52.126;20.638;2024-01-30T05:51:06;24.30;;;10.95;;
55993;SDS011;67425;52.126;20.638;2024-01-30T05:53:32;22.98;;;10.82;;
55993;SDS011;67425;52.126;20.638;2024-01-30T05:55:57;34.33;;;10.43;;
55993;SDS011;67425;52.126;20.638;2024-01-30T05:58:23;25.10;;;10.35;;
55993;SDS011;67425;52.126;20.638;2024-01-30T06:00:48;28.42;;;10.75;;
55993;SDS011;67425;52.126;20.638;2024-01-30T06:03:13;35.88;;;10.35;;
55993;SDS011;67425;52.126;20.638;2024-01-30T06:05:39;29.67;;;10.23;;
55993;SDS011;67425;52.126;20.638;2024-01-30T06:08:04;31.25;;;10.90;;
55993;SDS011;67425;52.126;20.638;2024-01-30T06:10:30;30.73;;;10.45;;
55993;SDS011;67425;52.126;20.638;2024-01-30T06:12:55;29.10;;;10.20;;
55993;SDS011;67425;52.126;20.638;2024-01-30T06:15:20;27.40;;;8.80;;
55993;SDS011;67425;52.126;20.638;2024-01-30T06:17:46;23.05;;;10.43;;
55993;SDS011;67425;52.126;20.638;2024-01-30T06:20:11;32.90;;;10.38;;
55993;SDS011;67425;52.126;20.638;2024-01-30T06:22:36;22.90;;;9.30;;
55993;SDS011;67425;52.126;20.638;2024-01-30T06:25:02;23.13;;;9.88;;
55993;SDS011;67425;52.126;20.638;2024-01-30T06:27:27;24.13;;;9.18;;
55993;SDS011;67425;52.126;20.638;2024-01-30T06:29:53;30.38;;;10.93;;
55993;SDS011;67425;52.126;20.638;2024-01-30T06:32:18;34.10;;;10.82;;
55993;SDS011;67425;52.126;20.638;2024-01-30T06:34:44;34.55;;;10.25;;
55993;SDS011;67425;52.126;20.638;2024-01-30T06:37:09;21.80;;;9.48;;
55993;SDS011;67425;52.126;20.638;2024-01-30T06:39:35;29.17;;;9.35;;
55993;SDS011;67425;52.126;20.638;2024-01-30T06:42:00;26.95;;;9.25;;
55993;SDS011;67425;52.126;20.638;2024-01-30T06:44:25;22.88;;;9.65;;
55993;SDS011;67425;52.126;20.638;2024-01-30T06:46:51;35.75;;;9.70;;
55993;SDS011;67425;52.126;20.638;2024-01-30T06:49:16;26.80;;;9.55;;
55993;SDS011;67425;52.126;20.638;2024-01-30T06:51:41;26.08;;;9.65;;
55993;SDS011;67425;52.126;20.638;2024-01-30T06:54:07;20.65;;;8.52;;
55993;SDS011;67425;52.126;20.638;2024-01-30T06:56:32;24.75;;;10.20;;
55993;SDS011;67425;52.126;20.638;2024-01-30T06:58:57;22.77;;;9.48;;
55993;SDS011;67425;52.126;20.638;2024-01-30T07:01:28;23.60;;;8.80;;
55993;SDS011;67425;52.126;20.638;2024-01-30T07:03:54;22.08;;;9.98;;
55993;SDS011;67425;52.126;20.638;2024-01-30T07:06:19;29.65;;;9.45;;
55993;SDS011;67425;52.126;20.638;2024-01-30T07:08:45;27.15;;;8.45;;
55993;SDS011;67425;52.126;20.638;2024-01-30T07:11:10;23.95;;;8.65;;
55993;SDS011;67425;52.126;20.638;2024-01-30T07:13:37;21.90;;;9.02;;
55993;SDS011;67425;52.126;20.638;2024-01-30T07:16:02;24.27;;;9.93;;
55993;SDS011;67425;52.126;20.638;2024-01-30T07:18:28;16.00;;;7.68;;
55993;SDS011;67425;52.126;20.638;2024-01-30T07:20:53;21.83;;;9.55;;
55993;SDS011;67425;52.126;20.638;2024-01-30T07:23:19;20.05;;;9.02;;
55993;SDS011;67425;52.126;20.638;2024-01-30T07:25:44;24.38;;;10.20;;
55993;SDS011;67425;52.126;20.638;2024-01-30T07:28:10;20.55;;;8.48;;
55993;SDS011;67425;52.126;20.638;2024-01-30T07:30:36;26.20;;;9.10;;
55993;SDS011;67425;52.126;20.638;2024-01-30T07:33:01;26.60;;;9.75;;
55993;SDS011;67425;52.126;20.638;2024-01-30T07:35:27;27.48;;;9.18;;
55993;SDS011;67425;52.126;20.638;2024-01-30T07:37:52;30.67;;;11.55;;
55993;SDS011;67425;52.126;20.638;2024-01-30T07:40:18;22.45;;;8.48;;
55993;SDS011;67425;52.126;20.638;2024-01-30T07:42:43;6.13;;;4.35;;
55993;SDS011;67425;52.126;20.638;2024-01-30T07:45:09;21.05;;;7.85;;
55993;SDS011;67425;52.126;20.638;2024-01-30T07:47:34;23.70;;;8.98;;
55993;SDS011;67425;52.126;20.638;2024-01-30T07:50:00;20.92;;;8.02;;
55993;SDS011;67425;52.126;20.638;2024-01-30T07:52:25;22.77;;;9.32;;
55993;SDS011;67425;52.126;20.638;2024-01-30T07:54:51;21.85;;;8.73;;
55993;SDS011;67425;52.126;20.638;2024-01-30T07:57:16;25.38;;;8.80;;
55993;SDS011;67425;52.126;20.638;2024-01-30T07:59:43;9.35;;;4.88;;
55993;SDS011;67425;52.126;20.638;2024-01-30T08:02:09;20.67;;;8.35;;
55993;SDS011;67425;52.126;20.638;2024-01-30T08:04:35;25.25;;;8.93;;
55993;SDS011;67425;52.126;20.638;2024-01-30T08:07:00;9.40;;;5.05;;
55993;SDS011;67425;52.126;20.638;2024-01-30T08:09:26;19.77;;;7.57;;
55993;SDS011;67425;52.126;20.638;2024-01-30T08:11:51;26.08;;;8.45;;
55993;SDS011;67425;52.126;20.638;2024-01-30T08:14:17;21.85;;;8.27;;
55993;SDS011;67425;52.126;20.638;2024-01-30T08:16:42;23.67;;;8.45;;
55993;SDS011;67425;52.126;20.638;2024-01-30T08:19:07;15.10;;;6.28;;
55993;SDS011;67425;52.126;20.638;2024-01-30T08:21:33;21.40;;;8.27;;
55993;SDS011;67425;52.126;20.638;2024-01-30T08:24:02;24.05;;;9.13;;
55993;SDS011;67425;52.126;20.638;2024-01-30T08:26:28;22.30;;;8.35;;
55993;SDS011;67425;52.126;20.638;2024-01-30T08:28:53;18.80;;;8.98;;
55993;SDS011;67425;52.126;20.638;2024-01-30T08:31:19;22.08;;;8.15;;
55993;SDS011;67425;52.126;20.638;2024-01-30T08:33:44;15.93;;;6.50;;
55993;SDS011;67425;52.126;20.638;2024-01-30T08:36:10;19.35;;;7.22;;
55993;SDS011;67425;52.126;20.638;2024-01-30T08:38:35;25.65;;;8.13;;
55993;SDS011;67425;52.126;20.638;2024-01-30T08:41:00;14.48;;;8.00;;
55993;SDS011;67425;52.126;20.638;2024-01-30T08:43:26;21.88;;;7.53;;
55993;SDS011;67425;52.126;20.638;2024-01-30T08:45:51;23.50;;;8.55;;
55993;SDS011;67425;52.126;20.638;2024-01-30T08:48:16;14.55;;;7.72;;
55993;SDS011;67425;52.126;20.638;2024-01-30T08:50:42;24.45;;;8.65;;
55993;SDS011;67425;52.126;20.638;2024-01-30T08:53:08;14.98;;;7.78;;
55993;SDS011;67425;52.126;20.638;2024-01-30T08:55:33;17.05;;;7.15;;
55993;SDS011;67425;52.126;20.638;2024-01-30T08:57:58;23.25;;;8.00;;
55993;SDS011;67425;52.126;20.638;2024-01-30T09:00:24;25.90;;;7.82;;
55993;SDS011;67425;52.126;20.638;2024-01-30T09:02:50;18.38;;;7.05;;
55993;SDS011;67425;52.126;20.638;2024-01-30T09:05:15;17.23;;;7.95;;
55993;SDS011;67425;52.126;20.638;2024-01-30T09:07:40;24.40;;;8.43;;
55993;SDS011;67425;52.126;20.638;2024-01-30T09:10:06;14.35;;;7.75;;
55993;SDS011;67425;52.126;20.638;2024-01-30T09:12:31;19.92;;;8.70;;
55993;SDS011;67425;52.126;20.638;2024-01-30T09:14:57;19.92;;;6.85;;
55993;SDS011;67425;52.126;20.638;2024-01-30T09:17:22;24.40;;;8.52;;
55993;SDS011;67425;52.126;20.638;2024-01-30T09:19:48;17.77;;;8.43;;
55993;SDS011;67425;52.126;20.638;2024-01-30T09:22:13;15.82;;;7.70;;
55993;SDS011;67425;52.126;20.638;2024-01-30T09:24:38;26.55;;;7.57;;
55993;SDS011;67425;52.126;20.638;2024-01-30T09:27:05;17.73;;;7.75;;
55993;SDS011;67425;52.126;20.638;2024-01-30T09:29:31;20.52;;;8.80;;
55993;SDS011;67425;52.126;20.638;2024-01-30T09:31:59;23.02;;;7.68;;
55993;SDS011;67425;52.126;20.638;2024-01-30T09:34:24;15.13;;;7.10;;
55993;SDS011;67425;52.126;20.638;2024-01-30T09:36:49;20.20;;;8.30;;
55993;SDS011;67425;52.126;20.638;2024-01-30T09:39:15;15.70;;;7.32;;
55993;SDS011;67425;52.126;20.638;2024-01-30T09:41:56;15.60;;;6.50;;
55993;SDS011;67425;52.126;20.638;2024-01-30T09:44:30;18.50;;;7.32;;
55993;SDS011;67425;52.126;20.638;2024-01-30T09:46:55;24.67;;;8.07;;
55993;SDS011;67425;52.126;20.638;2024-01-30T09:49:23;18.25;;;6.50;;
55993;SDS011;67425;52.126;20.638;2024-01-30T09:51:50;23.67;;;9.02;;
55993;SDS011;67425;52.126;20.638;2024-01-30T09:54:15;25.25;;;8.27;;
55993;SDS011;67425;52.126;20.638;2024-01-30T09:56:42;20.27;;;7.78;;
55993;SDS011;67425;52.126;20.638;2024-01-30T09:59:07;18.67;;;7.30;;
55993;SDS011;67425;52.126;20.638;2024-01-30T10:01:34;29.55;;;8.65;;
55993;SDS011;67425;52.126;20.638;2024-01-30T10:04:00;23.88;;;7.72;;
55993;SDS011;67425;52.126;20.638;2024-01-30T10:06:26;15.18;;;7.28;;
55993;SDS011;67425;52.126;20.638;2024-01-30T10:08:52;17.55;;;7.30;;
55993;SDS011;67425;52.126;20.638;2024-01-30T10:11:18;20.20;;;7.20;;
55993;SDS011;67425;52.126;20.638;2024-01-30T10:13:43;20.25;;;8.95;;
55993;SDS011;67425;52.126;20.638;2024-01-30T10:16:08;19.10;;;7.40;;
55993;SDS011;67425;52.126;20.638;2024-01-30T10:18:34;20.08;;;7.07;;
55993;SDS011;67425;52.126;20.638;2024-01-30T10:20:59;15.52;;;7.15;;
55993;SDS011;67425;52.126;20.638;2024-01-30T10:23:25;16.25;;;7.25;;
55993;SDS011;67425;52.126;20.638;2024-01-30T10:25:51;14.82;;;7.07;;
55993;SDS011;67425;52.126;20.638;2024-01-30T10:28:17;17.48;;;6.65;;
55993;SDS011;67425;52.126;20.638;2024-01-30T10:30:42;17.15;;;7.50;;
55993;SDS011;67425;52.126;20.638;2024-01-30T10:33:08;18.17;;;7.43;;
55993;SDS011;67425;52.126;20.638;2024-01-30T10:35:33;24.35;;;7.90;;
55993;SDS011;67425;52.126;20.638;2024-01-30T10:37:58;17.40;;;7.30;;
55993;SDS011;67425;52.126;20.638;2024-01-30T10:40:26;22.15;;;7.28;;
55993;SDS011;67425;52.126;20.638;2024-01-30T10:42:53;18.50;;;7.32;;
55993;SDS011;67425;52.126;20.638;2024-01-30T10:45:21;18.83;;;7.75;;
55993;SDS011;67425;52.126;20.638;2024-01-30T10:47:50;21.67;;;7.80;;
55993;SDS011;67425;52.126;20.638;2024-01-30T10:50:18;15.73;;;6.07;;
55993;SDS011;67425;52.126;20.638;2024-01-30T10:52:45;24.85;;;7.07;;
55993;SDS011;67425;52.126;20.638;2024-01-30T10:55:12;17.10;;;7.25;;
55993;SDS011;67425;52.126;20.638;2024-01-30T10:57:38;22.70;;;7.65;;
55993;SDS011;67425;52.126;20.638;2024-01-30T11:00:08;16.45;;;7.03;;
55993;SDS011;67425;52.126;20.638;2024-01-30T11:02:36;19.77;;;7.72;;
55993;SDS011;67425;52.126;20.638;2024-01-30T11:05:06;20.38;;;7.70;;
55993;SDS011;67425;52.126;20.638;2024-01-30T11:07:31;15.65;;;6.95;;
55993;SDS011;67425;52.126;20.638;2024-01-30T11:12:23;12.60;;;6.22;;
55993;SDS011;67425;52.126;20.638;2024-01-30T11:14:49;16.35;;;7.65;;
55993;SDS011;67425;52.126;20.638;2024-01-30T11:17:27;16.83;;;6.80;;
55993;SDS011;67425;52.126;20.638;2024-01-30T11:19:53;24.80;;;8.57;;
55993;SDS011;67425;52.126;20.638;2024-01-30T11:22:20;18.52;;;7.45;;
55993;SDS011;67425;52.126;20.638;2024-01-30T11:24:45;23.02;;;8.68;;
55993;SDS011;67425;52.126;20.638;2024-01-30T11:27:12;17.13;;;7.38;;
55993;SDS011;67425;52.126;20.638;2024-01-30T11:29:38;19.17;;;8.23;;
55993;SDS011;67425;52.126;20.638;2024-01-30T11:32:05;17.42;;;7.60;;
55993;SDS011;67425;52.126;20.638;2024-01-30T11:34:30;16.00;;;7.82;;
55993;SDS011;67425;52.126;20.638;2024-01-30T11:36:59;16.20;;;7.68;;
55993;SDS011;67425;52.126;20.638;2024-01-30T11:39:31;17.52;;;8.85;;
55993;SDS011;67425;52.126;20.638;2024-01-30T11:41:56;22.77;;;9.07;;
55993;SDS011;67425;52.126;20.638;2024-01-30T11:44:23;17.30;;;8.55;;
55993;SDS011;67425;52.126;20.638;2024-01-30T11:46:49;21.27;;;7.90;;
55993;SDS011;67425;52.126;20.638;2024-01-30T11:49:16;22.08;;;8.82;;
55993;SDS011;67425;52.126;20.638;2024-01-30T11:51:42;19.95;;;7.90;;
55993;SDS011;67425;52.126;20.638;2024-01-30T11:54:08;27.45;;;8.27;;
55993;SDS011;67425;52.126;20.638;2024-01-30T11:56:33;22.40;;;7.57;;
55993;SDS011;67425;52.126;20.638;2024-01-30T11:58:59;16.20;;;8.07;;
55993;SDS011;67425;52.126;20.638;2024-01-30T12:01:25;26.65;;;7.97;;
55993;SDS011;67425;52.126;20.638;2024-01-30T12:03:51;15.77;;;7.55;;
55993;SDS011;67425;52.126;20.638;2024-01-30T12:06:17;12.85;;;7.35;;
55993;SDS011;67425;52.126;20.638;2024-01-30T12:08:43;20.27;;;8.60;;
55993;SDS011;67425;52.126;20.638;2024-01-30T12:11:09;20.80;;;8.73;;
55993;SDS011;67425;52.126;20.638;2024-01-30T12:13:34;17.65;;;8.63;;
55993;SDS011;67425;52.126;20.638;2024-01-30T12:16:00;14.48;;;7.75;;
55993;SDS011;67425;52.126;20.638;2024-01-30T12:18:26;22.23;;;8.07;;
55993;SDS011;67425;52.126;20.638;2024-01-30T12:21:00;27.48;;;8.57;;
55993;SDS011;67425;52.126;20.638;2024-01-30T12:23:26;20.90;;;7.38;;
55993;SDS011;67425;52.126;20.638;2024-01-30T12:25:53;21.88;;;8.18;;
55993;SDS011;67425;52.126;20.638;2024-01-30T12:28:19;16.98;;;7.68;;
55993;SDS011;67425;52.126;20.638;2024-01-30T12:30:45;14.57;;;7.80;;
55993;SDS011;67425;52.126;20.638;2024-01-30T12:33:15;19.35;;;7.72;;
55993;SDS011;67425;52.126;20.638;2024-01-30T12:35:46;19.42;;;8.30;;
55993;SDS011;67425;52.126;20.638;2024-01-30T12:38:12;18.33;;;8.57;;
55993;SDS011;67425;52.126;20.638;2024-01-30T12:40:38;22.98;;;8.45;;
55993;SDS011;67425;52.126;20.638;2024-01-30T12:43:04;21.73;;;8.90;;
55993;SDS011;67425;52.126;20.638;2024-01-30T12:45:29;25.80;;;8.93;;
55993;SDS011;67425;52.126;20.638;2024-01-30T12:47:55;26.65;;;8.75;;
55993;SDS011;67425;52.126;20.638;2024-01-30T12:50:20;17.83;;;7.80;;
55993;SDS011;67425;52.126;20.638;2024-01-30T12:52:46;20.05;;;8.52;;
55993;SDS011;67425;52.126;20.638;2024-01-30T12:55:11;18.50;;;7.75;;
55993;SDS011;67425;52.126;20.638;2024-01-30T12:57:36;27.13;;;8.40;;
55993;SDS011;67425;52.126;20.638;2024-01-30T13:00:04;20.80;;;8.95;;
55993;SDS011;67425;52.126;20.638;2024-01-30T13:02:31;24.10;;;8.38;;
55993;SDS011;67425;52.126;20.638;2024-01-30T13:05:01;29.25;;;8.88;;
55993;SDS011;67425;52.126;20.638;2024-01-30T13:07:28;16.00;;;6.97;;
55993;SDS011;67425;52.126;20.638;2024-01-30T13:09:53;20.00;;;8.32;;
55993;SDS011;67425;52.126;20.638;2024-01-30T13:12:18;19.35;;;8.00;;
55993;SDS011;67425;52.126;20.638;2024-01-30T13:14:44;26.92;;;8.52;;
55993;SDS011;67425;52.126;20.638;2024-01-30T13:17:09;18.42;;;8.23;;
55993;SDS011;67425;52.126;20.638;2024-01-30T13:19:34;19.52;;;8.23;;
55993;SDS011;67425;52.126;20.638;2024-01-30T13:21:59;20.00;;;7.82;;
55993;SDS011;67425;52.126;20.638;2024-01-30T13:24:25;20.30;;;8.40;;
55993;SDS011;67425;52.126;20.638;2024-01-30T13:26:50;17.75;;;8.38;;
55993;SDS011;67425;52.126;20.638;2024-01-30T13:29:16;19.13;;;8.95;;
55993;SDS011;67425;52.126;20.638;2024-01-30T13:31:41;26.20;;;9.40;;
55993;SDS011;67425;52.126;20.638;2024-01-30T13:34:06;26.42;;;9.45;;
55993;SDS011;67425;52.126;20.638;2024-01-30T13:36:32;23.45;;;9.48;;
55993;SDS011;67425;52.126;20.638;2024-01-30T13:38:57;30.60;;;10.70;;
55993;SDS011;67425;52.126;20.638;2024-01-30T13:41:23;30.15;;;10.77;;
55993;SDS011;67425;52.126;20.638;2024-01-30T13:43:48;25.70;;;9.60;;
55993;SDS011;67425;52.126;20.638;2024-01-30T13:46:14;20.00;;;8.52;;
55993;SDS011;67425;52.126;20.638;2024-01-30T13:48:39;28.60;;;9.20;;
55993;SDS011;67425;52.126;20.638;2024-01-30T13:51:05;19.45;;;8.77;;
55993;SDS011;67425;52.126;20.638;2024-01-30T13:53:31;23.38;;;9.23;;
55993;SDS011;67425;52.126;20.638;2024-01-30T13:55:56;24.90;;;8.88;;
55993;SDS011;67425;52.126;20.638;2024-01-30T13:58:21;21.20;;;8.50;;
55993;SDS011;67425;52.126;20.638;2024-01-30T14:00:47;21.60;;;7.88;;
55993;SDS011;67425;52.126;20.638;2024-01-30T14:03:12;22.75;;;10.00;;
55993;SDS011;67425;52.126;20.638;2024-01-30T14:05:37;24.85;;;9.18;;
55993;SDS011;67425;52.126;20.638;2024-01-30T14:08:03;29.38;;;7.93;;
55993;SDS011;67425;52.126;20.638;2024-01-30T14:10:29;20.85;;;8.27;;